sensor_id;sensor_type;location;lat;lon;timestamp;temperature;humidity
31809;DHT22;18379;48.208;-1.518;2022-08-27T00:02:42;17.00;99.90
31809;DHT22;18379;48.208;-1.518;2022-08-27T00:07:44;17.00;99.90
31809;DHT22;18379;48.208;-1.518;2022-08-27T00:12:45;16.90;99.90
31809;DHT22;18379;48.208;-1.518;2022-08-27T00:17:47;16.80;99.90
31809;DHT22;18379;48.208;-1.518;2022-08-27T00:22:48;16.80;99.90
31809;DHT22;18379;48.208;-1.518;2022-08-27T00:27:50;16.80;99.90
31809;DHT22;18379;48.208;-1.518;2022-08-27T00:32:51;16.90;99.90
31809;DHT22;18379;48.208;-1.518;2022-08-27T00:37:52;16.80;99.90
31809;DHT22;18379;48.208;-1.518;2022-08-27T00:42:53;16.80;99.90
31809;DHT22;18379;48.208;-1.518;2022-08-27T00:47:59;16.80;99.90
31809;DHT22;18379;48.208;-1.518;2022-08-27T00:53:05;16.80;99.90
31809;DHT22;18379;48.208;-1.518;2022-08-27T00:58:30;16.80;99.90
31809;DHT22;18379;48.208;-1.518;2022-08-27T01:03:31;16.80;99.90
31809;DHT22;18379;48.208;-1.518;2022-08-27T01:08:36;16.70;99.90
31809;DHT22;18379;48.208;-1.518;2022-08-27T01:13:38;16.60;99.90
31809;DHT22;18379;48.208;-1.518;2022-08-27T01:18:39;16.70;99.90
31809;DHT22;18379;48.208;-1.518;2022-08-27T01:28:48;16.60;99.90
31809;DHT22;18379;48.208;-1.518;2022-08-27T01:34:00;16.50;99.90
31809;DHT22;18379;48.208;-1.518;2022-08-27T01:39:11;16.50;99.90
31809;DHT22;18379;48.208;-1.518;2022-08-27T01:44:13;16.60;99.90
31809;DHT22;18379;48.208;-1.518;2022-08-27T01:49:14;16.50;99.90
31809;DHT22;18379;48.208;-1.518;2022-08-27T01:54:14;16.40;99.90
31809;DHT22;18379;48.208;-1.518;2022-08-27T01:59:15;16.40;99.90
31809;DHT22;18379;48.208;-1.518;2022-08-27T02:04:17;16.30;99.90
31809;DHT22;18379;48.208;-1.518;2022-08-27T02:09:18;16.30;99.90
31809;DHT22;18379;48.208;-1.518;2022-08-27T02:14:19;16.30;99.90
31809;DHT22;18379;48.208;-1.518;2022-08-27T02:19:20;16.20;99.90
31809;DHT22;18379;48.208;-1.518;2022-08-27T02:24:21;16.10;99.90
31809;DHT22;18379;48.208;-1.518;2022-08-27T02:29:23;16.20;99.90
31809;DHT22;18379;48.208;-1.518;2022-08-27T02:34:24;16.20;99.90
31809;DHT22;18379;48.208;-1.518;2022-08-27T02:39:25;16.30;99.90
31809;DHT22;18379;48.208;-1.518;2022-08-27T02:44:26;16.10;99.90
31809;DHT22;18379;48.208;-1.518;2022-08-27T02:49:28;16.10;99.90
31809;DHT22;18379;48.208;-1.518;2022-08-27T02:54:29;16.00;99.90
31809;DHT22;18379;48.208;-1.518;2022-08-27T02:59:30;16.00;99.90
31809;DHT22;18379;48.208;-1.518;2022-08-27T03:04:31;16.00;99.90
31809;DHT22;18379;48.208;-1.518;2022-08-27T03:09:32;15.90;99.90
31809;DHT22;18379;48.208;-1.518;2022-08-27T03:14:33;15.90;99.90
31809;DHT22;18379;48.208;-1.518;2022-08-27T03:19:34;15.90;99.90
31809;DHT22;18379;48.208;-1.518;2022-08-27T03:24:35;15.90;99.90
31809;DHT22;18379;48.208;-1.518;2022-08-27T03:29:36;15.90;99.90
31809;DHT22;18379;48.208;-1.518;2022-08-27T03:34:36;15.90;99.90
31809;DHT22;18379;48.208;-1.518;2022-08-27T03:39:37;15.70;99.90
31809;DHT22;18379;48.208;-1.518;2022-08-27T03:44:38;15.60;99.90
31809;DHT22;18379;48.208;-1.518;2022-08-27T03:49:39;15.60;99.90
31809;DHT22;18379;48.208;-1.518;2022-08-27T03:54:41;15.60;99.90
31809;DHT22;18379;48.208;-1.518;2022-08-27T03:59:42;15.70;99.90
31809;DHT22;18379;48.208;-1.518;2022-08-27T04:04:42;15.60;99.90
31809;DHT22;18379;48.208;-1.518;2022-08-27T04:09:43;15.50;99.90
31809;DHT22;18379;48.208;-1.518;2022-08-27T04:14:44;15.50;99.90
31809;DHT22;18379;48.208;-1.518;2022-08-27T04:19:45;15.50;99.90
31809;DHT22;18379;48.208;-1.518;2022-08-27T04:24:46;15.40;99.90
31809;DHT22;18379;48.208;-1.518;2022-08-27T04:29:47;15.60;99.90
31809;DHT22;18379;48.208;-1.518;2022-08-27T04:34:51;15.60;99.90
31809;DHT22;18379;48.208;-1.518;2022-08-27T04:39:52;15.50;99.90
31809;DHT22;18379;48.208;-1.518;2022-08-27T04:44:53;15.50;99.90
31809;DHT22;18379;48.208;-1.518;2022-08-27T04:49:54;15.40;99.90
31809;DHT22;18379;48.208;-1.518;2022-08-27T04:54:55;15.40;99.90
31809;DHT22;18379;48.208;-1.518;2022-08-27T04:59:55;15.30;99.90
31809;DHT22;18379;48.208;-1.518;2022-08-27T05:04:57;15.20;99.90
31809;DHT22;18379;48.208;-1.518;2022-08-27T05:10:00;15.30;99.90
31809;DHT22;18379;48.208;-1.518;2022-08-27T05:15:01;15.30;99.90
31809;DHT22;18379;48.208;-1.518;2022-08-27T05:20:03;15.20;99.90
31809;DHT22;18379;48.208;-1.518;2022-08-27T05:25:05;15.10;99.90
31809;DHT22;18379;48.208;-1.518;2022-08-27T05:30:06;15.10;99.90
31809;DHT22;18379;48.208;-1.518;2022-08-27T05:35:07;15.10;99.90
31809;DHT22;18379;48.208;-1.518;2022-08-27T05:40:09;15.10;99.90
31809;DHT22;18379;48.208;-1.518;2022-08-27T05:45:09;15.00;99.90
31809;DHT22;18379;48.208;-1.518;2022-08-27T05:50:11;14.90;99.90
31809;DHT22;18379;48.208;-1.518;2022-08-27T05:55:14;14.90;99.90
31809;DHT22;18379;48.208;-1.518;2022-08-27T06:00:17;14.90;99.90
31809;DHT22;18379;48.208;-1.518;2022-08-27T06:05:36;14.90;99.90
31809;DHT22;18379;48.208;-1.518;2022-08-27T06:10:39;15.00;99.90
31809;DHT22;18379;48.208;-1.518;2022-08-27T06:15:40;15.00;99.90
31809;DHT22;18379;48.208;-1.518;2022-08-27T06:20:41;15.10;99.90
31809;DHT22;18379;48.208;-1.518;2022-08-27T06:25:42;15.20;99.90
31809;DHT22;18379;48.208;-1.518;2022-08-27T06:30:43;15.30;99.90
31809;DHT22;18379;48.208;-1.518;2022-08-27T06:35:44;15.40;99.90
31809;DHT22;18379;48.208;-1.518;2022-08-27T06:40:44;15.50;99.90
31809;DHT22;18379;48.208;-1.518;2022-08-27T06:45:46;15.70;99.90
31809;DHT22;18379;48.208;-1.518;2022-08-27T06:50:46;15.80;99.90
31809;DHT22;18379;48.208;-1.518;2022-08-27T06:55:48;15.80;99.90
31809;DHT22;18379;48.208;-1.518;2022-08-27T07:00:49;15.60;99.90
31809;DHT22;18379;48.208;-1.518;2022-08-27T07:05:50;15.50;99.90
31809;DHT22;18379;48.208;-1.518;2022-08-27T07:10:55;15.80;99.90
31809;DHT22;18379;48.208;-1.518;2022-08-27T07:15:57;16.00;99.90
31809;DHT22;18379;48.208;-1.518;2022-08-27T07:20:58;16.00;99.90
31809;DHT22;18379;48.208;-1.518;2022-08-27T07:25:59;15.90;99.90
31809;DHT22;18379;48.208;-1.518;2022-08-27T07:31:00;15.80;99.90
31809;DHT22;18379;48.208;-1.518;2022-08-27T07:36:04;15.80;99.90
31809;DHT22;18379;48.208;-1.518;2022-08-27T07:41:09;15.60;99.90
31809;DHT22;18379;48.208;-1.518;2022-08-27T07:46:12;15.50;99.90
31809;DHT22;18379;48.208;-1.518;2022-08-27T07:51:15;15.80;99.90
31809;DHT22;18379;48.208;-1.518;2022-08-27T07:56:21;15.70;99.90
31809;DHT22;18379;48.208;-1.518;2022-08-27T08:01:22;15.80;99.90
31809;DHT22;18379;48.208;-1.518;2022-08-27T08:06:23;15.90;99.90
31809;DHT22;18379;48.208;-1.518;2022-08-27T08:11:25;16.00;99.90
31809;DHT22;18379;48.208;-1.518;2022-08-27T08:16:27;16.10;99.90
31809;DHT22;18379;48.208;-1.518;2022-08-27T08:21:29;16.30;99.90
31809;DHT22;18379;48.208;-1.518;2022-08-27T08:26:30;16.30;99.90
31809;DHT22;18379;48.208;-1.518;2022-08-27T08:31:31;16.30;99.90
31809;DHT22;18379;48.208;-1.518;2022-08-27T08:36:32;16.40;99.90
31809;DHT22;18379;48.208;-1.518;2022-08-27T08:46:49;16.80;99.90
31809;DHT22;18379;48.208;-1.518;2022-08-27T08:51:56;17.10;99.90
31809;DHT22;18379;48.208;-1.518;2022-08-27T08:57:20;17.10;99.90
31809;DHT22;18379;48.208;-1.518;2022-08-27T09:02:22;17.30;99.90
31809;DHT22;18379;48.208;-1.518;2022-08-27T09:07:31;17.50;99.90
31809;DHT22;18379;48.208;-1.518;2022-08-27T09:12:34;17.90;99.90
31809;DHT22;18379;48.208;-1.518;2022-08-27T09:17:35;18.20;99.90
31809;DHT22;18379;48.208;-1.518;2022-08-27T09:28:00;18.50;99.90
31809;DHT22;18379;48.208;-1.518;2022-08-27T09:33:03;18.80;99.90
31809;DHT22;18379;48.208;-1.518;2022-08-27T09:38:04;19.20;99.90
31809;DHT22;18379;48.208;-1.518;2022-08-27T09:48:26;19.70;99.90
31809;DHT22;18379;48.208;-1.518;2022-08-27T09:53:30;19.90;99.90
31809;DHT22;18379;48.208;-1.518;2022-08-27T09:58:54;20.20;99.90
31809;DHT22;18379;48.208;-1.518;2022-08-27T10:04:11;20.40;99.90
31809;DHT22;18379;48.208;-1.518;2022-08-27T10:14:27;21.60;99.90
31809;DHT22;18379;48.208;-1.518;2022-08-27T10:30:19;22.30;99.90
31809;DHT22;18379;48.208;-1.518;2022-08-27T10:35:22;22.10;99.90
31809;DHT22;18379;48.208;-1.518;2022-08-27T10:51:14;22.80;99.90
31809;DHT22;18379;48.208;-1.518;2022-08-27T10:56:35;22.50;99.90
31809;DHT22;18379;48.208;-1.518;2022-08-27T11:06:47;22.90;99.90
31809;DHT22;18379;48.208;-1.518;2022-08-27T11:11:55;23.30;99.90
31809;DHT22;18379;48.208;-1.518;2022-08-27T11:17:07;23.40;99.90
31809;DHT22;18379;48.208;-1.518;2022-08-27T11:22:18;23.60;98.60
31809;DHT22;18379;48.208;-1.518;2022-08-27T11:27:23;23.70;99.40
31809;DHT22;18379;48.208;-1.518;2022-08-27T11:42:49;24.10;96.30
31809;DHT22;18379;48.208;-1.518;2022-08-27T11:48:15;24.40;97.70
31809;DHT22;18379;48.208;-1.518;2022-08-27T11:53:33;24.90;95.90
31809;DHT22;18379;48.208;-1.518;2022-08-27T11:58:34;25.40;96.40
31809;DHT22;18379;48.208;-1.518;2022-08-27T12:03:35;25.90;94.10
31809;DHT22;18379;48.208;-1.518;2022-08-27T12:08:37;25.40;88.10
31809;DHT22;18379;48.208;-1.518;2022-08-27T12:34:50;25.30;87.60
31809;DHT22;18379;48.208;-1.518;2022-08-27T12:39:54;25.70;83.00
31809;DHT22;18379;48.208;-1.518;2022-08-27T12:44:57;25.20;76.60
31809;DHT22;18379;48.208;-1.518;2022-08-27T12:50:00;24.70;71.30
31809;DHT22;18379;48.208;-1.518;2022-08-27T13:00:22;24.90;75.00
31809;DHT22;18379;48.208;-1.518;2022-08-27T13:05:24;25.30;74.30
31809;DHT22;18379;48.208;-1.518;2022-08-27T13:10:29;25.30;70.60
31809;DHT22;18379;48.208;-1.518;2022-08-27T13:15:30;25.10;68.50
31809;DHT22;18379;48.208;-1.518;2022-08-27T13:20:36;25.50;71.70
31809;DHT22;18379;48.208;-1.518;2022-08-27T13:25:38;25.80;73.00
31809;DHT22;18379;48.208;-1.518;2022-08-27T13:30:42;26.00;70.60
31809;DHT22;18379;48.208;-1.518;2022-08-27T13:35:45;26.00;70.30
31809;DHT22;18379;48.208;-1.518;2022-08-27T13:40:54;25.90;70.20
31809;DHT22;18379;48.208;-1.518;2022-08-27T13:45:57;26.10;72.10
31809;DHT22;18379;48.208;-1.518;2022-08-27T13:50:58;25.90;68.30
31809;DHT22;18379;48.208;-1.518;2022-08-27T13:55:59;25.90;70.50
31809;DHT22;18379;48.208;-1.518;2022-08-27T14:01:08;26.00;69.80
31809;DHT22;18379;48.208;-1.518;2022-08-27T14:06:21;26.20;72.10
31809;DHT22;18379;48.208;-1.518;2022-08-27T14:11:24;26.50;72.60
31809;DHT22;18379;48.208;-1.518;2022-08-27T14:16:29;26.50;70.40
31809;DHT22;18379;48.208;-1.518;2022-08-27T14:21:31;26.60;69.40
31809;DHT22;18379;48.208;-1.518;2022-08-27T14:26:33;26.30;70.10
31809;DHT22;18379;48.208;-1.518;2022-08-27T14:31:34;26.10;71.80
31809;DHT22;18379;48.208;-1.518;2022-08-27T14:36:37;26.20;73.00
31809;DHT22;18379;48.208;-1.518;2022-08-27T14:41:39;26.50;73.30
31809;DHT22;18379;48.208;-1.518;2022-08-27T14:46:41;26.90;74.30
31809;DHT22;18379;48.208;-1.518;2022-08-27T14:51:42;26.90;72.70
31809;DHT22;18379;48.208;-1.518;2022-08-27T14:56:45;27.00;73.00
31809;DHT22;18379;48.208;-1.518;2022-08-27T15:01:47;26.90;71.20
31809;DHT22;18379;48.208;-1.518;2022-08-27T15:06:48;26.80;72.20
31809;DHT22;18379;48.208;-1.518;2022-08-27T15:11:49;26.70;72.30
31809;DHT22;18379;48.208;-1.518;2022-08-27T15:16:51;26.60;71.50
31809;DHT22;18379;48.208;-1.518;2022-08-27T15:22:16;26.60;70.80
31809;DHT22;18379;48.208;-1.518;2022-08-27T15:27:23;26.50;70.70
31809;DHT22;18379;48.208;-1.518;2022-08-27T15:32:27;26.40;71.40
31809;DHT22;18379;48.208;-1.518;2022-08-27T15:37:28;26.50;72.10
31809;DHT22;18379;48.208;-1.518;2022-08-27T15:42:30;26.70;72.50
31809;DHT22;18379;48.208;-1.518;2022-08-27T15:47:31;26.90;71.00
31809;DHT22;18379;48.208;-1.518;2022-08-27T15:52:32;26.70;69.90
31809;DHT22;18379;48.208;-1.518;2022-08-27T15:57:34;26.60;70.20
31809;DHT22;18379;48.208;-1.518;2022-08-27T16:02:35;26.60;70.20
31809;DHT22;18379;48.208;-1.518;2022-08-27T16:07:36;26.60;70.30
31809;DHT22;18379;48.208;-1.518;2022-08-27T16:12:37;26.70;70.10
31809;DHT22;18379;48.208;-1.518;2022-08-27T16:17:37;26.80;70.10
31809;DHT22;18379;48.208;-1.518;2022-08-27T16:22:39;26.70;70.20
31809;DHT22;18379;48.208;-1.518;2022-08-27T16:27:41;26.70;70.20
31809;DHT22;18379;48.208;-1.518;2022-08-27T16:32:47;26.50;69.50
31809;DHT22;18379;48.208;-1.518;2022-08-27T16:37:48;26.40;70.10
31809;DHT22;18379;48.208;-1.518;2022-08-27T16:42:50;26.30;70.50
31809;DHT22;18379;48.208;-1.518;2022-08-27T16:47:51;26.30;71.40
31809;DHT22;18379;48.208;-1.518;2022-08-27T16:53:13;26.30;70.60
31809;DHT22;18379;48.208;-1.518;2022-08-27T16:58:22;26.20;71.40
31809;DHT22;18379;48.208;-1.518;2022-08-27T17:03:24;26.20;71.50
31809;DHT22;18379;48.208;-1.518;2022-08-27T17:08:25;25.90;71.60
31809;DHT22;18379;48.208;-1.518;2022-08-27T17:13:29;25.90;71.90
31809;DHT22;18379;48.208;-1.518;2022-08-27T17:18:32;25.90;72.00
31809;DHT22;18379;48.208;-1.518;2022-08-27T17:23:37;26.00;72.20
31809;DHT22;18379;48.208;-1.518;2022-08-27T17:28:40;26.20;72.50
31809;DHT22;18379;48.208;-1.518;2022-08-27T17:33:44;26.10;72.10
31809;DHT22;18379;48.208;-1.518;2022-08-27T17:38:45;26.10;72.20
31809;DHT22;18379;48.208;-1.518;2022-08-27T17:43:47;26.00;72.20
31809;DHT22;18379;48.208;-1.518;2022-08-27T17:48:48;25.90;72.30
31809;DHT22;18379;48.208;-1.518;2022-08-27T17:53:51;25.80;72.30
31809;DHT22;18379;48.208;-1.518;2022-08-27T17:58:54;25.60;72.10
31809;DHT22;18379;48.208;-1.518;2022-08-27T18:03:56;25.60;72.80
31809;DHT22;18379;48.208;-1.518;2022-08-27T18:08:59;25.50;73.10
31809;DHT22;18379;48.208;-1.518;2022-08-27T18:14:03;25.50;71.90
31809;DHT22;18379;48.208;-1.518;2022-08-27T18:19:04;25.40;71.90
31809;DHT22;18379;48.208;-1.518;2022-08-27T18:24:05;25.30;72.00
31809;DHT22;18379;48.208;-1.518;2022-08-27T18:29:06;25.30;71.90
31809;DHT22;18379;48.208;-1.518;2022-08-27T18:34:07;25.30;71.80
31809;DHT22;18379;48.208;-1.518;2022-08-27T18:39:08;25.20;72.10
31809;DHT22;18379;48.208;-1.518;2022-08-27T18:44:09;25.20;72.20
31809;DHT22;18379;48.208;-1.518;2022-08-27T18:49:11;25.10;72.20
31809;DHT22;18379;48.208;-1.518;2022-08-27T18:54:12;25.00;72.10
31809;DHT22;18379;48.208;-1.518;2022-08-27T18:59:13;24.90;72.10
31809;DHT22;18379;48.208;-1.518;2022-08-27T19:04:15;24.80;72.30
31809;DHT22;18379;48.208;-1.518;2022-08-27T19:09:18;24.70;72.70
31809;DHT22;18379;48.208;-1.518;2022-08-27T19:14:20;24.50;72.90
31809;DHT22;18379;48.208;-1.518;2022-08-27T19:19:23;24.40;73.00
31809;DHT22;18379;48.208;-1.518;2022-08-27T19:24:25;24.30;73.20
31809;DHT22;18379;48.208;-1.518;2022-08-27T19:29:26;24.20;73.20
31809;DHT22;18379;48.208;-1.518;2022-08-27T19:34:27;24.10;73.40
31809;DHT22;18379;48.208;-1.518;2022-08-27T19:39:28;24.00;73.60
31809;DHT22;18379;48.208;-1.518;2022-08-27T19:44:30;23.70;74.40
31809;DHT22;18379;48.208;-1.518;2022-08-27T19:49:30;23.60;75.10
31809;DHT22;18379;48.208;-1.518;2022-08-27T19:54:32;23.40;76.20
31809;DHT22;18379;48.208;-1.518;2022-08-27T19:59:33;23.40;77.30
31809;DHT22;18379;48.208;-1.518;2022-08-27T20:04:35;23.20;78.50
31809;DHT22;18379;48.208;-1.518;2022-08-27T20:09:35;23.10;79.10
31809;DHT22;18379;48.208;-1.518;2022-08-27T20:14:36;23.10;79.50
31809;DHT22;18379;48.208;-1.518;2022-08-27T20:19:37;23.00;79.60
31809;DHT22;18379;48.208;-1.518;2022-08-27T20:24:39;23.00;80.80
31809;DHT22;18379;48.208;-1.518;2022-08-27T20:29:41;22.80;81.80
31809;DHT22;18379;48.208;-1.518;2022-08-27T20:34:41;22.70;81.60
31809;DHT22;18379;48.208;-1.518;2022-08-27T20:39:42;22.60;82.40
31809;DHT22;18379;48.208;-1.518;2022-08-27T20:44:44;22.50;82.40
31809;DHT22;18379;48.208;-1.518;2022-08-27T20:49:45;22.30;83.60
31809;DHT22;18379;48.208;-1.518;2022-08-27T20:54:46;22.10;84.30
31809;DHT22;18379;48.208;-1.518;2022-08-27T20:59:46;22.00;84.30
31809;DHT22;18379;48.208;-1.518;2022-08-27T21:05:09;22.10;85.00
31809;DHT22;18379;48.208;-1.518;2022-08-27T21:10:10;22.00;84.50
31809;DHT22;18379;48.208;-1.518;2022-08-27T21:15:12;22.00;84.80
31809;DHT22;18379;48.208;-1.518;2022-08-27T21:20:13;22.00;84.50
31809;DHT22;18379;48.208;-1.518;2022-08-27T21:25:14;22.00;85.20
31809;DHT22;18379;48.208;-1.518;2022-08-27T21:30:15;21.90;85.60
31809;DHT22;18379;48.208;-1.518;2022-08-27T21:35:16;21.80;86.10
31809;DHT22;18379;48.208;-1.518;2022-08-27T21:40:17;21.80;86.20
31809;DHT22;18379;48.208;-1.518;2022-08-27T21:45:20;21.70;86.80
31809;DHT22;18379;48.208;-1.518;2022-08-27T21:50:22;21.70;87.10
31809;DHT22;18379;48.208;-1.518;2022-08-27T21:55:23;21.70;87.80
31809;DHT22;18379;48.208;-1.518;2022-08-27T22:05:26;21.50;88.50
31809;DHT22;18379;48.208;-1.518;2022-08-27T22:10:27;21.40;88.70
31809;DHT22;18379;48.208;-1.518;2022-08-27T22:15:28;21.40;89.40
31809;DHT22;18379;48.208;-1.518;2022-08-27T22:20:29;21.30;90.10
31809;DHT22;18379;48.208;-1.518;2022-08-27T22:25:30;21.20;90.00
31809;DHT22;18379;48.208;-1.518;2022-08-27T22:30:31;21.30;90.20
31809;DHT22;18379;48.208;-1.518;2022-08-27T22:35:38;21.30;90.60
31809;DHT22;18379;48.208;-1.518;2022-08-27T22:40:40;21.20;90.80
31809;DHT22;18379;48.208;-1.518;2022-08-27T22:45:40;21.10;90.90
31809;DHT22;18379;48.208;-1.518;2022-08-27T22:50:41;21.10;91.00
31809;DHT22;18379;48.208;-1.518;2022-08-27T22:55:42;21.00;91.40
31809;DHT22;18379;48.208;-1.518;2022-08-27T23:05:46;21.00;92.00
31809;DHT22;18379;48.208;-1.518;2022-08-27T23:10:47;20.90;92.10
31809;DHT22;18379;48.208;-1.518;2022-08-27T23:15:48;20.90;92.30
31809;DHT22;18379;48.208;-1.518;2022-08-27T23:20:48;20.90;92.50
31809;DHT22;18379;48.208;-1.518;2022-08-27T23:25:49;20.90;92.70
31809;DHT22;18379;48.208;-1.518;2022-08-27T23:31:09;20.90;92.80
31809;DHT22;18379;48.208;-1.518;2022-08-27T23:36:10;20.80;93.30
31809;DHT22;18379;48.208;-1.518;2022-08-27T23:41:12;20.80;93.40
31809;DHT22;18379;48.208;-1.518;2022-08-27T23:46:15;20.70;93.50
31809;DHT22;18379;48.208;-1.518;2022-08-27T23:51:16;20.70;93.40
31809;DHT22;18379;48.208;-1.518;2022-08-27T23:56:17;20.80;93.50
